createdAt,value
2022-12-04T00:00:39.320Z,0.72
2022-12-04T00:03:48.441Z,0.71
2022-12-04T00:06:58.803Z,0.84
2022-12-04T00:10:09.205Z,0.86
2022-12-04T00:13:19.310Z,0.82
2022-12-04T00:16:30.348Z,0.87
2022-12-04T00:19:38.930Z,0.83
2022-12-04T00:22:47.319Z,0.98
2022-12-04T00:26:02.260Z,0.91
2022-12-04T00:29:12.200Z,0.95
2022-12-04T00:32:20.370Z,1.00
2022-12-04T00:35:28.591Z,1.00
2022-12-04T00:38:38.015Z,0.88
2022-12-04T00:41:47.425Z,0.82
2022-12-04T00:44:57.224Z,0.90
2022-12-04T00:48:05.925Z,0.81
2022-12-04T00:51:18.330Z,0.81
2022-12-04T00:54:26.592Z,0.92
2022-12-04T00:57:34.935Z,0.90
2022-12-04T01:00:44.935Z,0.88
2022-12-04T01:03:54.854Z,0.92
2022-12-04T01:07:05.243Z,0.87
2022-12-04T01:10:15.165Z,0.95
2022-12-04T01:13:25.185Z,0.94
2022-12-04T01:16:39.101Z,1.05
2022-12-04T01:19:47.665Z,1.06
2022-12-04T01:22:55.908Z,1.09
2022-12-04T01:26:04.263Z,1.09
2022-12-04T01:29:12.491Z,1.13
2022-12-04T01:32:22.387Z,1.16
2022-12-04T01:35:30.635Z,1.09
2022-12-04T01:38:39.901Z,1.11
2022-12-04T01:41:48.487Z,1.17
2022-12-04T01:45:39.782Z,1.17
2022-12-04T01:48:54.142Z,1.25
2022-12-04T01:52:10.212Z,1.22
2022-12-04T01:55:21.272Z,1.16
2022-12-04T01:58:35.559Z,1.10
2022-12-04T02:01:53.562Z,1.20
2022-12-04T02:05:07.413Z,1.21
2022-12-04T02:08:15.715Z,1.18
2022-12-04T02:11:37.626Z,1.12
2022-12-04T02:14:56.953Z,1.05
2022-12-04T02:18:16.996Z,1.10
2022-12-04T02:21:37.600Z,0.88
2022-12-04T02:24:54.723Z,0.76
2022-12-04T02:28:14.073Z,0.76
2022-12-04T02:31:32.063Z,0.75
2022-12-04T02:34:52.249Z,0.70
2022-12-04T02:38:11.691Z,0.74
2022-12-04T02:41:28.747Z,0.79
2022-12-04T02:44:46.053Z,0.84
2022-12-04T02:47:58.095Z,0.84
2022-12-04T02:51:11.563Z,0.81
2022-12-04T02:54:32.238Z,0.92
2022-12-04T02:57:48.500Z,0.94
2022-12-04T03:01:02.836Z,0.98
2022-12-04T03:04:18.542Z,0.99
2022-12-04T03:07:33.566Z,1.08
2022-12-04T03:10:49.755Z,1.03
2022-12-04T03:14:09.346Z,1.07
2022-12-04T03:17:26.914Z,1.17
2022-12-04T03:20:38.065Z,1.13
2022-12-04T03:23:51.487Z,1.09
2022-12-04T03:27:17.889Z,1.14
2022-12-04T03:30:26.464Z,1.14
2022-12-04T03:33:43.873Z,1.05
2022-12-04T03:36:57.961Z,1.05
2022-12-04T03:40:17.100Z,1.06
2022-12-04T03:43:32.420Z,0.98
2022-12-04T03:46:53.388Z,0.84
2022-12-04T03:50:11.079Z,0.89
2022-12-04T03:53:30.711Z,0.92
2022-12-04T03:56:46.922Z,0.98
2022-12-04T04:00:05.828Z,0.87
2022-12-04T04:03:22.387Z,0.92
2022-12-04T04:06:39.078Z,1.09
2022-12-04T04:09:55.386Z,1.12
2022-12-04T04:13:23.171Z,1.11
2022-12-04T04:16:54.233Z,1.24
2022-12-04T04:20:39.844Z,1.21
2022-12-04T04:24:11.348Z,1.27
2022-12-04T04:27:19.526Z,1.23
2022-12-04T04:30:30.479Z,1.20
2022-12-04T04:33:50.771Z,1.01
2022-12-04T04:37:08.072Z,0.96
2022-12-04T04:40:27.731Z,0.98
2022-12-04T04:43:45.827Z,1.07
2022-12-04T04:47:01.376Z,1.05
2022-12-04T04:50:13.563Z,1.07
2022-12-04T04:53:28.470Z,1.05
2022-12-04T04:56:44.048Z,1.07
2022-12-04T04:59:52.258Z,1.10
2022-12-04T05:03:00.496Z,1.17
2022-12-04T05:06:09.122Z,1.18
2022-12-04T05:09:17.293Z,1.11
2022-12-04T05:12:26.880Z,1.20
2022-12-04T05:15:35.065Z,1.18
2022-12-04T05:19:04.588Z,1.06
2022-12-04T05:22:13.339Z,0.98
2022-12-04T05:25:21.608Z,0.89
2022-12-04T05:28:31.378Z,0.90
2022-12-04T05:31:39.664Z,0.98
2022-12-04T05:34:49.550Z,0.93
2022-12-04T05:37:57.885Z,1.01
2022-12-04T05:41:08.366Z,1.02
2022-12-04T05:44:22.033Z,1.14
2022-12-04T05:47:30.384Z,1.05
2022-12-04T05:50:40.198Z,1.12
2022-12-04T05:53:48.392Z,1.17
2022-12-04T05:56:56.651Z,1.07
2022-12-04T06:00:08.905Z,1.09
2022-12-04T06:03:19.493Z,1.05
2022-12-04T06:06:28.340Z,1.11
2022-12-04T06:09:36.803Z,1.15
2022-12-04T06:12:45.038Z,1.10
2022-12-04T06:15:54.762Z,1.18
2022-12-04T06:19:07.427Z,1.09
2022-12-04T06:22:15.949Z,1.06
2022-12-04T06:25:24.120Z,1.02
2022-12-04T06:28:32.548Z,1.02
2022-12-04T06:31:42.977Z,1.13
2022-12-04T06:34:53.587Z,1.13
2022-12-04T06:38:07.931Z,1.21
2022-12-04T06:41:27.202Z,1.17
2022-12-04T06:44:41.605Z,1.08
2022-12-04T06:47:52.843Z,1.07
2022-12-04T06:51:05.328Z,1.09
2022-12-04T06:54:13.517Z,1.10
2022-12-04T06:57:21.793Z,1.05
2022-12-04T07:00:30.182Z,0.98
2022-12-04T07:07:57.950Z,1.01
2022-12-04T07:11:06.413Z,0.96
2022-12-04T07:14:16.741Z,1.04
2022-12-04T07:17:25.109Z,1.00
2022-12-04T07:20:33.672Z,1.00
2022-12-04T07:23:44.119Z,1.01
2022-12-04T07:26:52.465Z,1.00
2022-12-04T07:30:00.701Z,1.01
2022-12-04T07:33:09.035Z,0.94
2022-12-04T07:36:20.422Z,0.99
2022-12-04T07:39:29.941Z,1.00
2022-12-04T07:42:48.829Z,1.07
2022-12-04T07:45:58.541Z,1.09
2022-12-04T07:49:07.085Z,1.11
2022-12-04T07:52:15.320Z,1.07
2022-12-04T07:55:24.946Z,1.11
2022-12-04T07:58:33.411Z,1.19
2022-12-04T08:01:42.025Z,1.22
2022-12-04T08:04:51.245Z,1.10
2022-12-04T08:08:00.543Z,1.07
2022-12-04T08:11:14.130Z,1.13
2022-12-04T08:14:23.002Z,1.26
2022-12-04T08:17:35.229Z,1.33
2022-12-04T08:20:43.666Z,1.20
2022-12-04T08:23:54.573Z,1.31
2022-12-04T08:27:04.281Z,1.35
2022-12-04T08:30:13.734Z,1.47
2022-12-04T08:33:22.184Z,1.55
2022-12-04T08:36:31.956Z,1.61
2022-12-04T08:39:40.232Z,1.43
2022-12-04T08:42:49.827Z,1.34
2022-12-04T08:45:58.861Z,1.23
2022-12-04T08:49:07.439Z,1.36
2022-12-04T08:52:15.667Z,1.55
2022-12-04T08:55:24.012Z,1.79
2022-12-04T08:58:33.786Z,1.88
2022-12-04T09:01:42.014Z,1.97
2022-12-04T09:04:50.308Z,2.15
2022-12-04T09:07:58.702Z,2.29
2022-12-04T09:11:09.289Z,2.39
2022-12-04T09:14:25.727Z,2.35
2022-12-04T09:17:35.474Z,2.30
2022-12-04T09:20:43.664Z,2.35
2022-12-04T09:23:52.306Z,2.50
2022-12-04T09:27:00.569Z,2.46
2022-12-04T09:30:13.080Z,2.49
2022-12-04T09:33:21.686Z,2.44
2022-12-04T09:36:31.248Z,2.54
2022-12-04T09:39:39.740Z,2.63
2022-12-04T09:43:05.820Z,2.23
2022-12-04T09:46:27.128Z,2.41
2022-12-04T09:49:44.131Z,2.54
2022-12-04T09:53:00.455Z,2.23
2022-12-04T09:56:15.474Z,1.92
2022-12-04T09:59:28.486Z,1.78
2022-12-04T10:19:25.442Z,3.41
2022-12-04T10:22:52.959Z,3.45
2022-12-04T10:26:08.387Z,2.95
2022-12-04T10:29:25.744Z,2.86
2022-12-04T10:32:37.027Z,2.65
2022-12-04T10:35:53.089Z,2.86
2022-12-04T10:39:10.551Z,2.88
2022-12-04T10:42:31.818Z,3.08
2022-12-04T10:45:43.404Z,3.05
2022-12-04T10:48:59.111Z,3.11
2022-12-04T10:52:13.153Z,3.12
2022-12-04T10:55:34.117Z,3.16
2022-12-04T10:58:44.064Z,2.73
2022-12-04T11:02:06.526Z,2.93
2022-12-04T11:05:28.378Z,2.96
2022-12-04T11:08:44.128Z,2.91
2022-12-04T11:11:54.348Z,2.57
2022-12-04T11:15:14.541Z,2.75
2022-12-04T11:18:26.315Z,2.93
2022-12-04T11:21:34.972Z,3.23
2022-12-04T11:24:54.088Z,3.22
2022-12-04T11:28:05.049Z,3.28
2022-12-04T11:31:23.053Z,3.13
2022-12-04T11:34:38.862Z,3.30
2022-12-04T11:37:56.931Z,3.34
2022-12-04T11:41:06.917Z,3.20
2022-12-04T11:44:28.092Z,2.96
2022-12-04T11:47:36.557Z,2.45
2022-12-04T11:50:55.281Z,2.07
2022-12-04T11:54:18.591Z,2.06
2022-12-04T11:57:45.229Z,2.11
2022-12-04T12:01:12.588Z,2.05
2022-12-04T12:05:05.977Z,2.10
2022-12-04T12:08:30.442Z,2.06
2022-12-04T12:11:47.289Z,2.40
2022-12-04T12:15:13.183Z,2.38
2022-12-04T12:18:58.283Z,2.49
2022-12-04T12:22:21.805Z,2.63
2022-12-04T12:25:50.403Z,2.88
2022-12-04T12:29:22.220Z,2.87
2022-12-04T12:32:58.223Z,2.54
2022-12-04T12:36:11.522Z,2.19
2022-12-04T12:39:27.700Z,2.39
2022-12-04T12:42:43.582Z,2.16
2022-12-04T12:46:01.203Z,2.11
2022-12-04T12:49:18.769Z,2.01
2022-12-04T12:52:35.578Z,1.86
2022-12-04T12:55:51.848Z,1.75
2022-12-04T12:59:06.977Z,1.73
2022-12-04T13:02:29.936Z,1.79
2022-12-04T13:05:47.800Z,1.84
2022-12-04T13:09:11.050Z,2.00
2022-12-04T13:12:23.598Z,2.28
2022-12-04T13:15:41.287Z,2.28
2022-12-04T13:18:56.507Z,2.42
2022-12-04T13:22:19.605Z,2.48
2022-12-04T13:25:48.096Z,2.67
2022-12-04T13:29:12.483Z,2.80
2022-12-04T13:32:50.425Z,2.76
2022-12-04T13:36:39.428Z,2.86
2022-12-04T13:40:29.230Z,2.51
2022-12-04T13:43:46.971Z,2.49
2022-12-04T13:47:00.548Z,2.45
2022-12-04T13:50:28.792Z,2.53
2022-12-04T13:53:42.088Z,2.79
2022-12-04T13:56:55.393Z,2.84
2022-12-04T14:00:08.156Z,2.90
2022-12-04T14:03:29.202Z,3.06
2022-12-04T14:06:43.935Z,3.14
2022-12-04T14:09:56.225Z,2.93
2022-12-04T14:13:17.225Z,3.06
2022-12-04T14:16:31.305Z,2.75
2022-12-04T14:19:53.849Z,2.54
2022-12-04T14:23:26.427Z,2.48
2022-12-04T14:27:03.640Z,2.48
2022-12-04T14:30:05.848Z,2.53
2022-12-04T14:33:22.467Z,2.56
2022-12-04T14:36:36.312Z,2.56
2022-12-04T14:39:50.891Z,2.24
2022-12-04T14:43:00.918Z,2.12
2022-12-04T14:46:24.156Z,2.14
2022-12-04T14:49:51.708Z,1.98
2022-12-04T14:53:13.915Z,1.99
2022-12-04T14:56:43.006Z,1.98
2022-12-04T14:59:55.995Z,2.02
2022-12-04T15:03:13.603Z,2.12
2022-12-04T15:06:27.367Z,2.20
2022-12-04T15:10:01.847Z,2.16
2022-12-04T15:13:10.996Z,2.14
2022-12-04T15:16:22.902Z,2.22
2022-12-04T15:19:37.830Z,2.02
2022-12-04T15:22:59.539Z,1.97
2022-12-04T15:26:18.238Z,1.88
2022-12-04T15:29:38.232Z,1.91
2022-12-04T15:32:50.431Z,1.91
2022-12-04T15:36:06.996Z,1.91
2022-12-04T15:39:23.107Z,2.00
2022-12-04T15:42:33.296Z,1.96
2022-12-04T15:45:43.494Z,1.92
2022-12-04T15:48:53.122Z,1.98
2022-12-04T15:52:18.164Z,2.01
2022-12-04T15:55:29.174Z,1.92
2022-12-04T15:58:41.141Z,1.99
2022-12-04T16:01:51.374Z,1.99
2022-12-04T16:05:11.119Z,2.06
2022-12-04T16:08:32.589Z,2.02
2022-12-04T16:11:44.156Z,1.98
2022-12-04T16:14:55.060Z,1.83
2022-12-04T16:18:05.898Z,1.94
2022-12-04T16:21:19.159Z,1.87
2022-12-04T16:24:28.787Z,1.94
2022-12-04T16:27:37.167Z,1.89
2022-12-04T16:30:45.836Z,1.84
2022-12-04T16:33:54.667Z,1.87
2022-12-04T16:37:03.759Z,1.88
2022-12-04T16:40:15.966Z,1.87
2022-12-04T16:43:24.237Z,1.84
2022-12-04T16:46:32.857Z,1.83
2022-12-04T16:49:42.783Z,1.81
2022-12-04T16:52:51.363Z,1.79
2022-12-04T16:56:01.064Z,1.87
2022-12-04T16:59:12.172Z,1.82
2022-12-04T17:02:27.747Z,1.98
2022-12-04T17:05:36.523Z,2.12
2022-12-04T17:08:45.673Z,2.03
2022-12-04T17:11:55.413Z,1.99
2022-12-04T17:15:03.904Z,2.14
2022-12-04T17:18:16.338Z,2.16
2022-12-04T17:21:27.885Z,2.09
2022-12-04T17:24:43.595Z,2.05
2022-12-04T17:27:57.072Z,2.04
2022-12-04T17:31:13.124Z,2.06
2022-12-04T17:34:22.588Z,2.12
2022-12-04T17:37:32.341Z,2.17
2022-12-04T17:40:40.813Z,2.21
2022-12-04T17:43:50.953Z,2.24
2022-12-04T17:46:59.335Z,2.15
2022-12-04T17:50:09.031Z,2.23
2022-12-04T17:53:17.691Z,2.22
2022-12-04T17:56:28.487Z,2.27
2022-12-04T17:59:38.574Z,2.19
2022-12-04T18:02:52.838Z,2.22
2022-12-04T18:06:02.817Z,2.24
2022-12-04T18:09:18.863Z,2.21
2022-12-04T18:12:28.863Z,2.20
2022-12-04T18:15:48.606Z,2.32
2022-12-04T18:19:00.107Z,2.30
2022-12-04T18:22:33.672Z,2.42
2022-12-04T18:25:43.750Z,2.45
2022-12-04T18:28:53.326Z,2.38
2022-12-04T18:32:03.059Z,2.29
2022-12-04T18:35:11.940Z,2.15
2022-12-04T18:38:20.661Z,2.26
2022-12-04T18:41:30.166Z,2.33
2022-12-04T18:44:38.944Z,2.34
2022-12-04T18:47:50.576Z,2.33
2022-12-04T18:50:59.185Z,2.42
2022-12-04T18:54:12.293Z,2.37
2022-12-04T18:57:20.592Z,2.34
2022-12-04T19:00:29.252Z,2.21
2022-12-04T19:03:39.309Z,2.13
2022-12-04T19:06:50.246Z,2.10
2022-12-04T19:10:10.755Z,2.15
2022-12-04T19:13:20.359Z,2.19
2022-12-04T19:16:30.204Z,2.10
2022-12-04T19:19:43.008Z,2.17
2022-12-04T19:22:52.084Z,2.12
2022-12-04T19:26:06.141Z,2.19
2022-12-04T19:29:16.435Z,2.24
2022-12-04T19:32:27.657Z,2.19
2022-12-04T19:35:40.600Z,2.16
2022-12-04T19:38:49.591Z,2.00
2022-12-04T19:41:58.832Z,1.98
2022-12-04T19:45:08.840Z,1.96
2022-12-04T19:48:18.302Z,1.97
2022-12-04T19:51:33.553Z,1.98
2022-12-04T19:54:47.008Z,1.92
2022-12-04T19:58:00.983Z,1.95
2022-12-04T20:01:14.582Z,1.95
2022-12-04T20:04:23.793Z,1.96
2022-12-04T20:07:33.770Z,1.89
2022-12-04T20:10:42.459Z,1.85
2022-12-04T20:13:55.587Z,1.94
2022-12-04T20:17:05.351Z,2.01
2022-12-04T20:20:14.707Z,1.99
2022-12-04T20:23:25.111Z,2.01
2022-12-04T20:26:43.110Z,1.91
2022-12-04T20:29:51.549Z,1.92
2022-12-04T20:33:03.442Z,1.87
2022-12-04T20:36:13.425Z,1.85
2022-12-04T20:39:26.945Z,1.74
2022-12-04T20:42:38.063Z,1.65
2022-12-04T20:45:46.625Z,1.74
2022-12-04T20:48:57.632Z,1.77
2022-12-04T20:52:12.570Z,1.81
2022-12-04T20:55:22.992Z,1.68
2022-12-04T20:58:32.385Z,1.79
2022-12-04T21:01:42.367Z,1.73
2022-12-04T21:04:51.865Z,1.96
2022-12-04T21:08:02.156Z,1.94
2022-12-04T21:11:16.719Z,1.87
2022-12-04T21:14:50.338Z,1.82
2022-12-04T21:18:03.576Z,2.00
2022-12-04T21:21:15.864Z,2.03
2022-12-04T21:24:27.957Z,2.04
2022-12-04T21:27:38.039Z,1.98
2022-12-04T21:30:47.293Z,1.85
2022-12-04T21:33:58.078Z,1.82
2022-12-04T21:37:06.417Z,1.74
2022-12-04T21:40:15.184Z,1.79
2022-12-04T21:43:24.943Z,1.79
2022-12-04T21:46:36.369Z,1.90
2022-12-04T21:49:45.132Z,1.85
2022-12-04T21:52:55.784Z,1.78
2022-12-04T21:56:04.752Z,1.64
2022-12-04T21:59:14.762Z,1.59
2022-12-04T22:02:23.398Z,1.71
2022-12-04T22:05:33.263Z,1.81
2022-12-04T22:08:44.557Z,1.76
2022-12-04T22:11:52.828Z,1.80
2022-12-04T22:15:06.312Z,1.64
2022-12-04T22:18:17.663Z,1.66
2022-12-04T22:21:26.682Z,1.67
2022-12-04T22:25:26.969Z,1.65
2022-12-04T22:28:49.695Z,1.75
2022-12-04T22:31:59.844Z,1.82
2022-12-04T22:35:09.132Z,1.78
2022-12-04T22:38:17.404Z,1.78
2022-12-04T22:41:26.882Z,1.79
2022-12-04T22:44:35.110Z,1.80
2022-12-04T22:47:44.777Z,1.73
2022-12-04T22:51:05.853Z,1.51
2022-12-04T22:54:15.621Z,1.63
2022-12-04T22:57:24.035Z,1.52
2022-12-04T23:00:32.374Z,1.62
2022-12-04T23:03:42.061Z,1.67
2022-12-04T23:06:52.512Z,1.66
2022-12-04T23:10:00.809Z,1.66
2022-12-04T23:13:09.033Z,1.69
2022-12-04T23:16:20.377Z,1.72
2022-12-04T23:19:31.401Z,1.69
2022-12-04T23:22:39.617Z,1.59
2022-12-04T23:25:47.851Z,1.53
2022-12-04T23:28:57.829Z,1.69
2022-12-04T23:32:09.006Z,1.73
2022-12-04T23:35:20.702Z,1.76
2022-12-04T23:38:30.904Z,1.91
2022-12-04T23:41:39.054Z,1.76
2022-12-04T23:44:47.237Z,1.87
2022-12-04T23:47:55.847Z,1.88
2022-12-04T23:51:05.573Z,1.84
2022-12-04T23:54:13.744Z,1.91
2022-12-04T23:57:22.170Z,1.98
